createdAt,value
2023-02-07T00:01:07.255Z,15.73
2023-02-07T00:03:34.857Z,13.70
2023-02-07T00:06:05.850Z,17.13
2023-02-07T00:08:33.499Z,10.97
2023-02-07T00:11:06.054Z,16.70
2023-02-07T00:13:33.678Z,14.53
2023-02-07T00:16:01.345Z,14.80
2023-02-07T00:18:28.924Z,15.60
2023-02-07T00:20:59.873Z,16.07
2023-02-07T00:23:27.514Z,14.43
2023-02-07T00:25:55.314Z,14.63
2023-02-07T00:28:24.617Z,21.80
2023-02-07T00:30:52.345Z,20.77
2023-02-07T00:33:19.944Z,16.27
2023-02-07T00:35:47.554Z,19.53
2023-02-07T00:38:15.082Z,20.27
2023-02-07T00:40:42.713Z,17.20
2023-02-07T00:43:12.884Z,20.30
2023-02-07T00:45:45.329Z,17.10
2023-02-07T00:48:13.034Z,20.07
2023-02-07T00:50:42.018Z,20.40
2023-02-07T00:53:09.751Z,20.37
2023-02-07T00:55:37.949Z,22.73
2023-02-07T00:58:06.075Z,19.13
2023-02-07T01:00:33.711Z,20.83
2023-02-07T01:03:02.554Z,21.60
2023-02-07T01:05:30.152Z,19.70
2023-02-07T01:07:57.714Z,18.10
2023-02-07T01:10:25.707Z,19.00
2023-02-07T01:12:53.300Z,20.20
2023-02-07T01:15:20.891Z,19.67
2023-02-07T01:17:48.386Z,19.73
2023-02-07T01:20:17.600Z,19.00
2023-02-07T01:22:45.200Z,18.63
2023-02-07T01:25:12.664Z,19.73
2023-02-07T01:27:40.289Z,21.17
2023-02-07T01:30:08.113Z,23.00
2023-02-07T01:32:35.686Z,25.37
2023-02-07T01:35:06.477Z,22.13
2023-02-07T01:37:38.203Z,19.83
2023-02-07T01:40:06.151Z,23.27
2023-02-07T01:42:33.939Z,24.03
2023-02-07T01:45:06.740Z,22.10
2023-02-07T01:47:34.680Z,30.20
2023-02-07T01:50:02.492Z,19.20
2023-02-07T01:52:33.198Z,22.87
2023-02-07T01:55:03.806Z,20.70
2023-02-07T01:57:31.528Z,22.60
2023-02-07T02:00:00.618Z,22.97
2023-02-07T02:02:29.797Z,21.37
2023-02-07T02:04:58.705Z,23.97
2023-02-07T02:07:26.513Z,22.13
2023-02-07T02:09:54.690Z,22.93
2023-02-07T02:12:32.658Z,28.17
2023-02-07T02:15:09.393Z,25.23
2023-02-07T02:17:41.168Z,24.40
2023-02-07T02:20:27.378Z,24.50
2023-02-07T02:23:04.470Z,24.33
2023-02-07T02:25:58.817Z,21.17
2023-02-07T02:28:45.081Z,26.13
2023-02-07T02:31:30.849Z,23.53
2023-02-07T02:34:02.575Z,28.57
2023-02-07T02:36:35.072Z,27.97
2023-02-07T02:39:08.752Z,25.70
2023-02-07T02:41:39.744Z,27.20
2023-02-07T02:44:09.822Z,26.20
2023-02-07T02:46:38.628Z,26.73
2023-02-07T02:49:08.949Z,25.57
2023-02-07T02:51:36.569Z,27.67
2023-02-07T02:54:04.358Z,30.77
2023-02-07T02:56:38.818Z,25.77
2023-02-07T02:59:18.590Z,26.33
2023-02-07T03:01:52.180Z,29.73
2023-02-07T03:04:29.735Z,26.50
2023-02-07T03:07:04.516Z,30.00
2023-02-07T03:09:36.714Z,26.67
2023-02-07T03:12:08.089Z,22.53
2023-02-07T03:14:37.700Z,24.30
2023-02-07T03:17:13.177Z,25.63
2023-02-07T03:19:45.083Z,20.73
2023-02-07T03:22:13.648Z,23.17
2023-02-07T03:24:44.056Z,30.77
2023-02-07T03:27:14.466Z,22.70
2023-02-07T03:29:45.945Z,24.07
2023-02-07T03:32:14.660Z,23.13
2023-02-07T03:34:48.067Z,27.57
2023-02-07T03:37:17.693Z,26.83
2023-02-07T03:39:45.283Z,22.83
2023-02-07T03:42:17.103Z,24.13
2023-02-07T03:44:45.427Z,24.47
2023-02-07T03:47:13.290Z,25.63
2023-02-07T03:49:40.855Z,24.40
2023-02-07T03:52:09.820Z,25.13
2023-02-07T03:54:37.336Z,23.37
2023-02-07T03:57:04.931Z,23.37
2023-02-07T03:59:32.600Z,27.20
2023-02-07T04:02:00.238Z,25.40
2023-02-07T04:04:27.906Z,26.03
2023-02-07T04:06:55.398Z,28.00
2023-02-07T04:09:24.322Z,26.13
2023-02-07T04:11:52.370Z,23.07
2023-02-07T04:14:21.494Z,24.90
2023-02-07T04:16:49.408Z,26.57
2023-02-07T04:19:17.571Z,24.50
2023-02-07T04:21:45.096Z,25.37
2023-02-07T04:24:12.985Z,23.20
2023-02-07T04:26:42.083Z,24.80
2023-02-07T04:29:09.844Z,31.83
2023-02-07T04:31:38.026Z,26.80
2023-02-07T04:34:05.927Z,25.20
2023-02-07T04:36:33.500Z,25.77
2023-02-07T04:39:01.070Z,25.57
2023-02-07T04:41:28.564Z,30.87
2023-02-07T04:43:57.420Z,25.40
2023-02-07T04:46:25.004Z,22.70
2023-02-07T04:48:52.551Z,21.60
2023-02-07T04:51:20.061Z,26.20
2023-02-07T04:53:47.600Z,24.50
2023-02-07T04:56:15.192Z,25.37
2023-02-07T04:58:43.439Z,20.50
2023-02-07T05:01:12.591Z,26.50
2023-02-07T05:03:40.169Z,23.97
2023-02-07T05:06:08.030Z,24.60
2023-02-07T05:08:36.869Z,29.03
2023-02-07T05:11:05.069Z,23.77
2023-02-07T05:13:32.659Z,27.73
2023-02-07T05:16:02.884Z,30.80
2023-02-07T05:18:31.931Z,33.23
2023-02-07T05:20:59.740Z,34.67
2023-02-07T05:23:30.079Z,36.53
2023-02-07T05:25:57.746Z,27.57
2023-02-07T05:28:26.189Z,29.87
2023-02-07T05:30:55.412Z,34.10
2023-02-07T05:33:22.003Z,27.90
2023-02-07T05:35:51.257Z,23.57
2023-02-07T05:38:19.458Z,24.57
2023-02-07T05:40:47.347Z,28.23
2023-02-07T05:43:15.193Z,27.20
2023-02-07T05:45:42.718Z,25.77
2023-02-07T05:48:10.379Z,27.27
2023-02-07T05:50:38.501Z,27.30
2023-02-07T05:53:08.466Z,30.33
2023-02-07T05:55:36.268Z,27.77
2023-02-07T05:58:04.124Z,27.87
2023-02-07T06:00:31.747Z,27.87
2023-02-07T06:02:59.283Z,28.63
2023-02-07T06:05:32.537Z,28.10
2023-02-07T06:08:00.720Z,30.67
2023-02-07T06:10:29.737Z,30.40
2023-02-07T06:12:57.477Z,27.53
2023-02-07T06:15:25.044Z,31.27
2023-02-07T06:17:52.620Z,31.27
2023-02-07T06:20:20.151Z,29.67
2023-02-07T06:22:48.000Z,28.93
2023-02-07T06:25:15.722Z,29.60
2023-02-07T06:27:44.691Z,26.77
2023-02-07T06:30:13.532Z,27.67
2023-02-07T06:32:41.373Z,31.87
2023-02-07T06:35:09.408Z,27.33
2023-02-07T06:37:37.333Z,24.00
2023-02-07T06:40:05.265Z,28.00
2023-02-07T06:42:33.744Z,33.47
2023-02-07T06:45:02.673Z,28.53
2023-02-07T06:47:30.253Z,26.57
2023-02-07T06:49:57.850Z,31.33
2023-02-07T06:52:25.411Z,38.33
2023-02-07T06:54:53.038Z,39.60
2023-02-07T06:57:20.517Z,35.90
2023-02-07T06:59:48.271Z,34.03
2023-02-07T07:02:17.433Z,33.40
2023-02-07T07:04:45.044Z,37.63
2023-02-07T07:07:12.850Z,42.20
2023-02-07T07:09:40.472Z,32.63
2023-02-07T07:12:08.237Z,36.83
2023-02-07T07:14:36.007Z,33.20
2023-02-07T07:17:04.038Z,29.73
2023-02-07T07:19:33.347Z,29.87
2023-02-07T07:22:00.858Z,34.87
2023-02-07T07:24:28.476Z,32.67
2023-02-07T07:26:56.620Z,32.30
2023-02-07T07:29:24.251Z,32.90
2023-02-07T07:31:52.083Z,36.63
2023-02-07T07:34:20.133Z,35.13
2023-02-07T07:36:49.106Z,33.47
2023-02-07T07:39:17.079Z,34.07
2023-02-07T07:41:44.645Z,34.73
2023-02-07T07:44:12.244Z,31.43
2023-02-07T07:46:40.051Z,42.20
2023-02-07T07:49:07.689Z,41.33
2023-02-07T07:51:35.265Z,31.67
2023-02-07T07:54:06.696Z,32.90
2023-02-07T07:56:35.501Z,33.23
2023-02-07T07:59:05.993Z,27.67
2023-02-07T08:01:36.446Z,29.43
2023-02-07T08:04:04.304Z,29.33
2023-02-07T08:06:32.091Z,25.43
2023-02-07T08:08:59.684Z,30.70
2023-02-07T08:11:28.632Z,28.23
2023-02-07T08:13:56.693Z,23.70
2023-02-07T08:16:29.716Z,27.23
2023-02-07T08:18:59.758Z,28.50
2023-02-07T08:21:27.497Z,22.47
2023-02-07T08:23:55.626Z,25.17
2023-02-07T08:26:23.180Z,24.23
2023-02-07T08:28:53.241Z,25.83
2023-02-07T08:31:20.998Z,25.93
2023-02-07T08:33:48.896Z,23.20
2023-02-07T08:36:16.497Z,24.97
2023-02-07T08:38:44.028Z,21.67
2023-02-07T08:41:11.556Z,27.53
2023-02-07T08:43:39.225Z,18.67
2023-02-07T08:46:08.377Z,28.67
2023-02-07T08:48:36.002Z,21.53
2023-02-07T08:51:05.864Z,25.23
2023-02-07T08:53:33.456Z,19.83
2023-02-07T08:56:01.115Z,22.13
2023-02-07T08:58:29.065Z,20.30
2023-02-07T09:00:56.659Z,25.40
2023-02-07T09:03:25.612Z,23.33
2023-02-07T09:05:58.000Z,18.20
2023-02-07T09:08:25.613Z,19.47
2023-02-07T09:10:53.765Z,20.67
2023-02-07T09:13:21.616Z,18.00
2023-02-07T09:15:54.046Z,19.87
2023-02-07T09:18:21.556Z,23.10
2023-02-07T09:20:50.507Z,20.70
2023-02-07T09:23:23.751Z,21.90
2023-02-07T09:25:52.327Z,16.50
2023-02-07T09:28:22.139Z,18.50
2023-02-07T09:30:50.789Z,17.37
2023-02-07T09:33:18.798Z,21.50
2023-02-07T09:35:47.391Z,19.40
2023-02-07T09:38:17.366Z,18.00
2023-02-07T09:40:45.545Z,20.50
2023-02-07T09:43:16.678Z,17.47
2023-02-07T09:45:46.891Z,18.77
2023-02-07T09:48:17.556Z,19.60
2023-02-07T09:50:48.557Z,17.27
2023-02-07T09:53:20.181Z,18.87
2023-02-07T09:55:50.079Z,16.47
2023-02-07T09:58:19.842Z,18.60
2023-02-07T10:00:48.737Z,15.93
2023-02-07T10:03:17.141Z,23.57
2023-02-07T10:05:45.799Z,17.73
2023-02-07T10:08:15.407Z,26.33
2023-02-07T10:10:46.472Z,19.90
2023-02-07T10:13:33.355Z,20.47
2023-02-07T10:16:09.574Z,14.83
2023-02-07T10:18:42.585Z,16.03
2023-02-07T10:21:14.687Z,17.60
2023-02-07T10:23:51.005Z,16.93
2023-02-07T10:26:23.899Z,20.13
2023-02-07T10:29:12.273Z,22.40
2023-02-07T10:31:40.656Z,20.17
2023-02-07T10:34:14.167Z,22.20
2023-02-07T10:36:44.337Z,19.05
2023-02-07T10:39:15.471Z,14.80
2023-02-07T10:41:45.254Z,19.38
2023-02-07T10:44:13.990Z,17.90
2023-02-07T10:46:42.598Z,14.43
2023-02-07T10:49:24.410Z,17.55
2023-02-07T10:51:52.976Z,15.95
2023-02-07T10:54:24.354Z,15.43
2023-02-07T10:56:57.813Z,15.23
2023-02-07T10:59:34.149Z,14.70
2023-02-07T11:02:01.943Z,13.75
2023-02-07T11:04:36.275Z,12.77
2023-02-07T11:07:07.996Z,16.25
2023-02-07T11:09:38.158Z,14.80
2023-02-07T11:12:16.511Z,14.57
2023-02-07T11:15:00.100Z,22.20
2023-02-07T11:17:29.997Z,15.73
2023-02-07T11:19:57.792Z,12.32
2023-02-07T11:22:25.975Z,12.35
2023-02-07T11:24:56.010Z,14.82
2023-02-07T11:27:25.257Z,15.35
2023-02-07T11:29:58.213Z,15.98
2023-02-07T11:32:27.329Z,12.80
2023-02-07T11:34:57.328Z,11.20
2023-02-07T11:37:27.356Z,13.07
2023-02-07T11:39:56.043Z,12.98
2023-02-07T11:42:26.780Z,12.43
2023-02-07T11:44:59.040Z,14.52
2023-02-07T11:47:31.030Z,13.20
2023-02-07T11:50:21.288Z,13.00
2023-02-07T11:52:51.954Z,12.68
2023-02-07T11:55:22.940Z,11.50
2023-02-07T11:57:52.034Z,12.98
2023-02-07T12:00:24.259Z,11.55
2023-02-07T12:02:53.350Z,13.10
2023-02-07T12:05:22.718Z,10.10
2023-02-07T12:07:52.495Z,10.38
2023-02-07T12:10:25.165Z,11.60
2023-02-07T12:13:01.030Z,13.95
2023-02-07T12:15:31.013Z,11.75
2023-02-07T12:18:00.535Z,12.13
2023-02-07T12:20:35.607Z,13.52
2023-02-07T12:23:31.412Z,16.35
2023-02-07T12:26:09.281Z,12.18
2023-02-07T12:28:42.522Z,11.70
2023-02-07T12:31:17.789Z,10.18
2023-02-07T12:33:49.929Z,9.60
2023-02-07T12:36:31.955Z,9.20
2023-02-07T12:39:02.077Z,12.40
2023-02-07T12:41:33.022Z,9.38
2023-02-07T12:44:07.032Z,10.65
2023-02-07T12:46:39.363Z,8.85
2023-02-07T12:49:27.598Z,7.55
2023-02-07T12:52:00.364Z,8.80
2023-02-07T12:54:36.147Z,11.35
2023-02-07T12:57:10.048Z,9.10
2023-02-07T12:59:44.896Z,7.68
2023-02-07T13:02:20.478Z,8.68
2023-02-07T13:04:54.254Z,8.63
2023-02-07T13:07:33.439Z,9.73
2023-02-07T13:10:05.063Z,11.55
2023-02-07T13:12:39.367Z,6.80
2023-02-07T13:15:11.885Z,9.23
2023-02-07T13:17:45.108Z,6.85
2023-02-07T13:20:25.610Z,7.05
2023-02-07T13:22:58.075Z,11.13
2023-02-07T13:25:28.352Z,8.57
2023-02-07T13:27:57.925Z,7.63
2023-02-07T13:30:30.863Z,16.30
2023-02-07T13:33:14.686Z,8.90
2023-02-07T13:35:47.052Z,9.13
2023-02-07T13:38:21.258Z,8.13
2023-02-07T13:40:53.797Z,8.32
2023-02-07T13:43:28.453Z,8.55
2023-02-07T13:46:05.007Z,7.95
2023-02-07T13:48:36.666Z,8.45
2023-02-07T13:51:11.782Z,5.90
2023-02-07T13:53:48.383Z,7.45
2023-02-07T13:56:36.233Z,8.23
2023-02-07T13:59:22.049Z,8.82
2023-02-07T14:01:57.218Z,8.05
2023-02-07T14:04:46.673Z,7.13
2023-02-07T14:07:23.724Z,8.85
2023-02-07T14:09:55.512Z,9.60
2023-02-07T14:12:25.212Z,7.35
2023-02-07T14:15:02.628Z,5.93
2023-02-07T14:17:50.416Z,7.57
2023-02-07T14:20:33.150Z,21.88
2023-02-07T14:23:06.242Z,20.83
2023-02-07T14:25:43.710Z,8.93
2023-02-07T14:28:24.035Z,7.47
2023-02-07T14:31:03.585Z,10.10
2023-02-07T14:33:44.265Z,7.95
2023-02-07T14:36:25.199Z,7.38
2023-02-07T14:39:11.042Z,8.52
2023-02-07T14:41:42.208Z,7.47
2023-02-07T14:44:23.107Z,9.00
2023-02-07T14:46:53.079Z,8.77
2023-02-07T14:49:23.343Z,8.25
2023-02-07T14:51:53.668Z,9.52
2023-02-07T14:54:27.306Z,12.57
2023-02-07T14:57:07.680Z,11.73
2023-02-07T14:59:49.706Z,7.82
2023-02-07T15:02:29.180Z,6.43
2023-02-07T15:05:01.080Z,6.50
2023-02-07T15:07:34.686Z,8.25
2023-02-07T15:10:02.414Z,9.77
2023-02-07T15:12:32.932Z,11.27
2023-02-07T15:15:06.610Z,8.10
2023-02-07T15:17:44.098Z,6.55
2023-02-07T15:20:17.298Z,7.85
2023-02-07T15:22:50.649Z,10.23
2023-02-07T15:25:18.916Z,8.25
2023-02-07T15:28:01.512Z,12.35
2023-02-07T15:30:32.271Z,12.73
2023-02-07T15:33:03.570Z,9.35
2023-02-07T15:35:41.732Z,10.25
2023-02-07T15:38:28.913Z,8.23
2023-02-07T15:41:04.824Z,13.30
2023-02-07T15:43:35.262Z,9.68
2023-02-07T15:46:08.157Z,8.25
2023-02-07T15:48:46.886Z,11.10
2023-02-07T15:51:19.917Z,6.57
2023-02-07T15:53:55.203Z,11.05
2023-02-07T15:56:23.841Z,10.05
2023-02-07T15:58:54.064Z,7.45
2023-02-07T16:01:41.099Z,10.25
2023-02-07T16:04:12.143Z,8.05
2023-02-07T16:06:56.859Z,10.77
2023-02-07T16:09:40.825Z,7.80
2023-02-07T16:12:23.457Z,8.82
2023-02-07T16:14:58.342Z,7.80
2023-02-07T16:17:38.979Z,9.18
2023-02-07T16:20:07.233Z,9.03
2023-02-07T16:22:36.930Z,8.47
2023-02-07T16:25:08.515Z,13.37
2023-02-07T16:27:39.552Z,12.30
2023-02-07T16:30:14.906Z,16.10
2023-02-07T16:32:44.251Z,11.67
2023-02-07T16:35:22.230Z,11.80
2023-02-07T16:38:05.449Z,8.57
2023-02-07T16:40:43.982Z,8.10
2023-02-07T16:43:38.201Z,10.87
2023-02-07T16:46:08.062Z,12.23
2023-02-07T16:48:37.175Z,40.87
2023-02-07T16:51:05.439Z,87.40
2023-02-07T16:53:37.769Z,65.83
2023-02-07T16:56:06.549Z,71.33
2023-02-07T16:58:35.579Z,26.47
2023-02-07T17:01:04.970Z,14.60
2023-02-07T17:03:34.580Z,13.10
2023-02-07T17:06:02.141Z,12.10
2023-02-07T17:08:39.949Z,11.63
2023-02-07T17:11:10.349Z,14.50
2023-02-07T17:13:38.945Z,16.67
2023-02-07T17:16:07.038Z,9.40
2023-02-07T17:18:36.440Z,11.67
2023-02-07T17:21:04.043Z,15.30
2023-02-07T17:23:34.150Z,12.23
2023-02-07T17:26:02.358Z,12.53
2023-02-07T17:28:30.049Z,12.97
2023-02-07T17:30:59.141Z,15.63
2023-02-07T17:33:28.831Z,16.17
2023-02-07T17:35:57.769Z,14.60
2023-02-07T17:38:25.470Z,18.07
2023-02-07T17:40:53.175Z,17.73
2023-02-07T17:43:21.582Z,15.47
2023-02-07T17:45:49.297Z,14.93
2023-02-07T17:48:16.932Z,15.70
2023-02-07T17:50:47.640Z,14.33
2023-02-07T17:53:21.830Z,13.17
2023-02-07T17:55:50.268Z,10.80
2023-02-07T17:58:19.703Z,15.77
2023-02-07T18:00:47.998Z,13.83
2023-02-07T18:03:16.088Z,13.83
2023-02-07T18:05:43.788Z,15.07
2023-02-07T18:08:12.184Z,12.93
2023-02-07T18:10:41.957Z,11.23
2023-02-07T18:13:09.649Z,11.23
2023-02-07T18:15:38.232Z,12.40
2023-02-07T18:18:08.364Z,11.37
2023-02-07T18:20:36.051Z,14.57
2023-02-07T18:23:03.902Z,13.03
2023-02-07T18:25:33.202Z,13.87
2023-02-07T18:28:04.574Z,11.60
2023-02-07T18:30:39.586Z,13.73
2023-02-07T18:33:09.859Z,12.83
2023-02-07T18:35:37.866Z,12.97
2023-02-07T18:38:05.794Z,11.63
2023-02-07T18:40:33.587Z,13.47
2023-02-07T18:43:03.601Z,12.33
2023-02-07T18:45:34.385Z,14.33
2023-02-07T18:48:04.745Z,12.63
2023-02-07T18:50:35.404Z,14.73
2023-02-07T18:53:05.453Z,20.10
2023-02-07T18:55:33.259Z,30.27
2023-02-07T18:58:00.842Z,24.77
2023-02-07T19:00:28.537Z,19.97
2023-02-07T19:02:57.925Z,20.80
2023-02-07T19:05:25.989Z,20.17
2023-02-07T19:07:55.343Z,17.03
2023-02-07T19:10:23.125Z,15.73
2023-02-07T19:12:51.390Z,21.20
2023-02-07T19:15:24.417Z,23.47
2023-02-07T19:17:52.207Z,18.93
2023-02-07T19:20:22.228Z,19.57
2023-02-07T19:22:52.758Z,18.37
2023-02-07T19:25:21.855Z,15.20
2023-02-07T19:27:49.659Z,17.53
2023-02-07T19:30:17.861Z,21.97
2023-02-07T19:32:45.961Z,22.03
2023-02-07T19:35:13.681Z,21.40
2023-02-07T19:37:43.691Z,25.97
2023-02-07T19:40:12.901Z,19.00
2023-02-07T19:42:40.592Z,25.40
2023-02-07T19:45:08.466Z,29.20
2023-02-07T19:47:36.102Z,21.10
2023-02-07T19:50:03.642Z,27.40
2023-02-07T19:52:31.528Z,26.67
2023-02-07T19:55:01.346Z,25.67
2023-02-07T19:57:29.541Z,29.10
2023-02-07T20:00:05.333Z,36.63
2023-02-07T20:02:35.286Z,34.23
2023-02-07T20:05:06.908Z,28.83
2023-02-07T20:07:37.272Z,25.70
2023-02-07T20:10:13.043Z,25.43
2023-02-07T20:12:43.689Z,25.10
2023-02-07T20:15:11.877Z,22.43
2023-02-07T20:17:41.009Z,22.73
2023-02-07T20:20:08.948Z,24.80
2023-02-07T20:22:40.847Z,21.50
2023-02-07T20:25:10.608Z,27.87
2023-02-07T20:27:47.073Z,26.23
2023-02-07T20:30:18.212Z,20.57
2023-02-07T20:32:48.588Z,19.97
2023-02-07T20:35:25.360Z,21.27
2023-02-07T20:37:53.995Z,20.07
2023-02-07T20:40:24.444Z,18.20
2023-02-07T20:42:52.135Z,21.80
2023-02-07T20:45:20.290Z,21.70
2023-02-07T20:47:48.072Z,22.60
2023-02-07T20:50:18.569Z,22.80
2023-02-07T20:52:47.320Z,23.97
2023-02-07T20:55:15.319Z,22.03
2023-02-07T20:57:44.573Z,25.93
2023-02-07T21:00:36.634Z,21.67
2023-02-07T21:03:04.385Z,18.90
2023-02-07T21:05:33.053Z,24.10
2023-02-07T21:08:01.461Z,21.10
2023-02-07T21:10:30.982Z,22.53
2023-02-07T21:13:02.729Z,24.87
2023-02-07T21:15:32.702Z,29.67
2023-02-07T21:18:03.321Z,24.87
2023-02-07T21:20:31.564Z,27.13
2023-02-07T21:22:59.591Z,24.57
2023-02-07T21:25:27.863Z,24.73
2023-02-07T21:27:57.160Z,29.00
2023-02-07T21:30:28.328Z,24.53
2023-02-07T21:32:55.953Z,22.73
2023-02-07T21:35:29.185Z,23.03
2023-02-07T21:38:03.494Z,23.20
2023-02-07T21:40:39.746Z,24.40
2023-02-07T21:43:07.399Z,21.23
2023-02-07T21:45:37.872Z,21.97
2023-02-07T21:48:05.642Z,26.20
2023-02-07T21:50:33.663Z,23.73
2023-02-07T21:53:04.018Z,29.00
2023-02-07T21:55:33.632Z,37.90
2023-02-07T21:58:01.358Z,31.37
2023-02-07T22:00:29.361Z,30.10
2023-02-07T22:02:59.386Z,28.53
2023-02-07T22:05:27.311Z,27.70
2023-02-07T22:07:54.878Z,23.17
2023-02-07T22:10:23.886Z,25.77
2023-02-07T22:12:55.353Z,23.90
2023-02-07T22:15:23.263Z,23.43
2023-02-07T22:17:54.188Z,25.03
2023-02-07T22:20:23.177Z,26.90
2023-02-07T22:22:53.799Z,23.67
2023-02-07T22:25:22.568Z,29.93
2023-02-07T22:27:50.830Z,29.00
2023-02-07T22:30:26.349Z,34.63
2023-02-07T22:32:54.264Z,33.17
2023-02-07T22:35:23.187Z,39.13
2023-02-07T22:37:53.281Z,31.53
2023-02-07T22:40:24.105Z,28.73
2023-02-07T22:43:01.281Z,28.80
2023-02-07T22:45:32.525Z,28.53
2023-02-07T22:48:02.782Z,28.43
2023-02-07T22:50:32.408Z,28.00
2023-02-07T22:53:00.003Z,31.07
2023-02-07T22:55:30.619Z,29.00
2023-02-07T22:57:58.979Z,28.03
2023-02-07T23:00:28.701Z,30.53
2023-02-07T23:02:57.363Z,26.83
2023-02-07T23:05:24.962Z,30.93
2023-02-07T23:07:54.383Z,27.23
2023-02-07T23:10:22.157Z,32.23
2023-02-07T23:12:53.221Z,29.07
2023-02-07T23:15:22.474Z,31.93
2023-02-07T23:17:50.811Z,26.13
2023-02-07T23:20:21.327Z,29.80
2023-02-07T23:22:49.273Z,31.70
2023-02-07T23:25:21.107Z,29.83
2023-02-07T23:27:50.159Z,32.67
2023-02-07T23:30:17.885Z,34.87
2023-02-07T23:32:47.860Z,36.40
2023-02-07T23:35:15.324Z,31.73
2023-02-07T23:37:44.113Z,36.60
2023-02-07T23:40:12.036Z,33.90
2023-02-07T23:42:41.272Z,26.33
2023-02-07T23:45:10.570Z,30.87
2023-02-07T23:47:39.091Z,32.77
2023-02-07T23:50:08.206Z,28.87
2023-02-07T23:52:41.142Z,33.07
2023-02-07T23:55:09.033Z,36.90
2023-02-07T23:57:40.122Z,49.43
